Hartford, CT

5:51 AM EST on December 25, 2014 (GMT -0500)
Bradley International | Change Station
CLOSE
Current Station
Airport
Location: Windsor Locks,
Elevation: 180 ft
Nearby Weather Stations

Elev 180 ft 41.94 °N, 72.68 °W | Updated 14 minutes ago

Rain
Rain
54 °F
Feels Like 54 °F
N
13
Wind Variable Wind from South

Today
High -- | Low -- °F
--% Chance of Precip.
Yesterday
High -- | Low -- °F
Precip. -- in
7:16 AM 4:25 PM
Waxing Crescent, 15% visible
Pressure 29.49 in
Visibility 2.0 miles
Clouds Scattered Clouds 300 ft
Mostly Cloudy 4100 ft
Overcast 9000 ft
Dew Point 52 °F
Humidity 93%
Rainfall 0.00 in
Snow Depth Not available.
UV 0 out of 12
Pollen .10 out of 12
Air Quality Not available.
Flu Activity Not available.
SPECI KBDL 251037Z 17011KT 2SM R06/2200VP6000FT -RA BR SCT003 BKN041 OVC090 12/11 A2949 RMK AO2 SFC VIS 4 VIS 1 3/4 RWY 6-24 RAB0958 P0000 T01220111

More Conditions Fewer Conditions

Pressure 29.49 in
Visibility 2.0 miles
Clouds Scattered Clouds 300 ft
Mostly Cloudy 4100 ft
Overcast 9000 ft
Dew Point 52 °F
Humidity 93%
Rainfall 0.00 in
Snow Depth Not available.
UV 0 out of 12
Pollen .10 out of 12
Air Quality Not available.
Flu Activity Not available.
SPECI KBDL 251037Z 17011KT 2SM R06/2200VP6000FT -RA BR SCT003 BKN041 OVC090 12/11 A2949 RMK AO2 SFC VIS 4 VIS 1 3/4 RWY 6-24 RAB0958 P0000 T01220111

More Conditions Fewer Conditions

10-Day Weather Forecast

Almanac

Astronomy

Dec. 25, 2014 Rise Set
Actual Time
Civil Twilight
Nautical Twilight
Astronomical Twilight
Moon
Length of Visible Light
Length of Day
Tomorrow will be .
, % of the Moon is Illuminated

Today's Extremes

State Highs State Lows

Community

WunderPhotos

Upload Photos

1,780,254 photos uploaded!

WunderBlogs® & News

Nearby

Air Quality

  Air Quality AQ Index Pollutant
Not available.

Snow Depth

Station Depth Elevation

Earthquake Activity

City Distance Mag. Time & Date
Minimum magnitude displayed is 2.5.

Coastal Water Temperatures

Place Temperature

Nearby Weather Stations